Time;durP1;ratioP1;P1;durP2;ratioP2;P2;SDS_P1;SDS_P2;PMS_P1;PMS_P2;Temp;Humidity;BMP_temperature;BMP_pressure;BME280_temperature;BME280_humidity;BME280_pressure;Samples;Min_cycle;Max_cycle;Signal;HPM_P1;HPM_P2
2023/08/30 00:01:41;;;;;;;0.90;0.90;;;;;;;;;;4997386;28;20049;-72
2023/08/30 00:04:07;;;;;;;1.17;1.08;;;;;;;;;;5003513;28;20038;-73
2023/08/30 00:06:32;;;;;;;0.90;0.90;;;;;;;;;;5011179;28;20088;-72
2023/08/30 00:08:58;;;;;;;1.67;0.93;;;;;;;;;;4990260;28;20091;-72
2023/08/30 00:11:24;;;;;;;1.02;0.90;;;;;;;;;;5007970;28;20079;-72
2023/08/30 00:13:49;;;;;;;1.13;1.02;;;;;;;;;;5009120;28;20038;-72
2023/08/30 00:16:16;;;;;;;0.95;0.95;;;;;;;;;;5003335;28;20053;-72
2023/08/30 00:18:42;;;;;;;0.85;0.85;;;;;;;;;;5002659;28;20045;-72
2023/08/30 00:21:07;;;;;;;1.40;0.98;;;;;;;;;;4999227;28;20514;-72
2023/08/30 00:23:33;;;;;;;1.20;1.10;;;;;;;;;;4993280;28;20043;-72
2023/08/30 00:25:58;;;;;;;2.67;1.10;;;;;;;;;;4989313;28;20030;-73
2023/08/30 00:28:24;;;;;;;1.30;0.80;;;;;;;;;;5006165;28;20070;-72
2023/08/30 00:30:55;;;;;;;1.25;1.15;;;;;;;;;;5012356;28;20449;-72
2023/08/30 00:33:21;;;;;;;0.60;0.60;;;;;;;;;;5005070;28;20050;-72
2023/08/30 00:35:46;;;;;;;0.90;0.90;;;;;;;;;;4987217;28;20064;-73
2023/08/30 00:38:11;;;;;;;1.33;1.05;;;;;;;;;;5005752;28;20168;-72
2023/08/30 00:40:40;;;;;;;1.25;0.82;;;;;;;;;;4989850;28;20492;-73
2023/08/30 00:43:07;;;;;;;0.75;0.75;;;;;;;;;;4993502;28;20069;-73
2023/08/30 00:45:34;;;;;;;1.20;1.10;;;;;;;;;;5000260;28;20062;-73
2023/08/30 00:47:59;;;;;;;0.70;0.70;;;;;;;;;;5012219;28;20041;-73
2023/08/30 00:50:25;;;;;;;0.88;0.80;;;;;;;;;;4999270;28;20029;-73
2023/08/30 00:52:50;;;;;;;0.82;0.80;;;;;;;;;;5006590;28;20125;-73
2023/08/30 00:55:16;;;;;;;1.30;1.20;;;;;;;;;;5001547;28;20414;-72
2023/08/30 00:57:41;;;;;;;1.27;1.17;;;;;;;;;;5001852;28;20096;-73
2023/08/30 01:00:09;;;;;;;1.10;1.00;;;;;;;;;;5013089;28;20375;-72
2023/08/30 01:02:34;;;;;;;1.38;1.27;;;;;;;;;;5016194;28;20410;-72
2023/08/30 01:05:02;;;;;;;3.05;1.23;;;;;;;;;;4998805;28;20034;-73
2023/08/30 01:07:28;;;;;;;0.98;0.98;;;;;;;;;;4998041;28;20029;-72
2023/08/30 01:09:53;;;;;;;1.80;1.48;;;;;;;;;;5007939;28;20614;-73
2023/08/30 01:12:35;;;;;;;0.80;0.77;;;;;;;;;;5009376;28;20124;-72
2023/08/30 01:15:10;;;;;;;1.10;1.08;;;;;;;;;;5009633;28;20064;-72
2023/08/30 01:17:39;;;;;;;1.10;1.00;;;;;;;;;;4987570;28;20100;-72
2023/08/30 01:20:27;;;;;;;1.20;1.10;;;;;;;;;;5004934;28;20025;-71
2023/08/30 01:23:06;;;;;;;2.53;1.42;;;;;;;;;;4996284;28;20042;-72
2023/08/30 01:25:58;;;;;;;1.15;1.10;;;;;;;;;;4983170;28;20176;-72
2023/08/30 01:28:26;;;;;;;0.90;0.90;;;;;;;;;;4993834;28;20050;-72
2023/08/30 01:30:54;;;;;;;1.20;1.10;;;;;;;;;;5007662;28;20054;-73
2023/08/30 01:33:20;;;;;;;1.17;1.08;;;;;;;;;;4992320;28;20422;-72
2023/08/30 01:35:46;;;;;;;1.33;1.23;;;;;;;;;;5010467;28;20030;-73
2023/08/30 01:38:13;;;;;;;0.85;0.85;;;;;;;;;;4990305;28;20038;-72
2023/08/30 01:40:43;;;;;;;1.30;1.20;;;;;;;;;;4981217;28;20038;-72
2023/08/30 01:43:10;;;;;;;1.05;0.98;;;;;;;;;;4999210;28;20522;-72
2023/08/30 01:45:39;;;;;;;0.90;0.90;;;;;;;;;;5005527;28;20604;-72
2023/08/30 01:48:07;;;;;;;0.70;0.70;;;;;;;;;;4998573;28;20042;-72
2023/08/30 01:50:33;;;;;;;2.58;1.38;;;;;;;;;;5003024;28;20423;-72
2023/08/30 01:53:00;;;;;;;0.98;0.90;;;;;;;;;;5008189;28;20564;-72
2023/08/30 01:55:28;;;;;;;0.70;0.70;;;;;;;;;;5000856;28;20129;-73
2023/08/30 01:57:53;;;;;;;0.60;0.60;;;;;;;;;;5007490;28;20060;-73
2023/08/30 02:00:19;;;;;;;1.38;0.80;;;;;;;;;;5005020;28;20045;-73
2023/08/30 02:02:45;;;;;;;1.13;1.02;;;;;;;;;;4999859;28;20037;-73
2023/08/30 02:05:12;;;;;;;1.23;1.13;;;;;;;;;;5010568;28;20037;-72
2023/08/30 02:07:54;;;;;;;1.30;1.20;;;;;;;;;;4998307;28;20037;-72
2023/08/30 02:10:26;;;;;;;0.65;0.60;;;;;;;;;;5006794;28;20030;-72
2023/08/30 02:12:54;;;;;;;1.20;1.10;;;;;;;;;;4986370;28;20088;-72
2023/08/30 02:15:20;;;;;;;1.65;1.55;;;;;;;;;;5009528;28;20113;-72
2023/08/30 02:17:48;;;;;;;2.20;1.98;;;;;;;;;;5015148;28;20084;-72
2023/08/30 02:20:13;;;;;;;1.80;1.55;;;;;;;;;;5003811;28;20120;-72
2023/08/30 02:22:38;;;;;;;1.52;1.42;;;;;;;;;;5006735;28;20124;-72
2023/08/30 02:25:04;;;;;;;2.15;1.95;;;;;;;;;;5005128;28;20478;-72
2023/08/30 02:27:32;;;;;;;1.20;1.20;;;;;;;;;;5002694;28;20100;-71
2023/08/30 02:29:58;;;;;;;1.58;1.48;;;;;;;;;;4994892;28;20073;-72
2023/08/30 02:32:24;;;;;;;2.03;1.38;;;;;;;;;;5008768;28;20065;-72
2023/08/30 02:34:51;;;;;;;2.50;1.35;;;;;;;;;;4969879;28;20084;-72
2023/08/30 02:37:17;;;;;;;1.25;1.15;;;;;;;;;;5011695;28;20037;-71
2023/08/30 02:39:42;;;;;;;0.80;0.80;;;;;;;;;;5007501;28;20470;-72
2023/08/30 02:42:08;;;;;;;1.65;1.55;;;;;;;;;;4998457;28;20041;-72
2023/08/30 02:44:33;;;;;;;1.20;1.10;;;;;;;;;;4994891;28;20089;-71
2023/08/30 02:46:58;;;;;;;1.50;1.40;;;;;;;;;;5004487;28;20051;-71
2023/08/30 02:49:24;;;;;;;1.50;1.40;;;;;;;;;;5000421;28;20096;-71
2023/08/30 02:51:49;;;;;;;1.77;1.67;;;;;;;;;;5011071;28;20068;-72
2023/08/30 02:54:14;;;;;;;1.27;1.17;;;;;;;;;;5004955;28;20045;-71
2023/08/30 02:56:43;;;;;;;1.90;1.70;;;;;;;;;;5003717;28;20041;-72
2023/08/30 02:59:08;;;;;;;1.67;1.58;;;;;;;;;;5004899;28;20037;-71
2023/08/30 03:01:33;;;;;;;2.35;1.70;;;;;;;;;;5002694;28;20113;-72
2023/08/30 03:03:59;;;;;;;1.30;1.20;;;;;;;;;;5003312;28;20121;-72
2023/08/30 03:06:24;;;;;;;1.55;1.45;;;;;;;;;;5008651;28;20045;-72
2023/08/30 03:08:50;;;;;;;1.25;1.10;;;;;;;;;;5005120;28;20050;-71
2023/08/30 03:11:15;;;;;;;1.42;1.33;;;;;;;;;;5010829;28;20530;-72
2023/08/30 03:13:40;;;;;;;1.10;1.00;;;;;;;;;;5018340;28;20049;-72
2023/08/30 03:16:18;;;;;;;2.65;1.77;;;;;;;;;;4997336;28;20038;-72
2023/08/30 03:18:44;;;;;;;1.65;1.55;;;;;;;;;;4970494;28;20043;-72
2023/08/30 03:21:10;;;;;;;2.90;1.30;;;;;;;;;;4997884;28;20112;-72
2023/08/30 03:23:36;;;;;;;1.73;1.02;;;;;;;;;;5009206;28;20124;-72
2023/08/30 03:26:11;;;;;;;1.00;1.00;;;;;;;;;;5004786;28;20494;-72
2023/08/30 03:28:38;;;;;;;0.95;0.82;;;;;;;;;;5005567;28;20036;-72
2023/08/30 03:31:20;;;;;;;1.42;0.90;;;;;;;;;;4986204;28;20121;-72
2023/08/30 03:33:47;;;;;;;1.52;1.42;;;;;;;;;;4990933;28;20181;-72
2023/08/30 03:36:15;;;;;;;1.10;0.82;;;;;;;;;;5016061;28;20075;-71
2023/08/30 03:38:41;;;;;;;0.90;0.70;;;;;;;;;;5003858;28;20038;-71
2023/08/30 03:41:07;;;;;;;0.70;0.70;;;;;;;;;;5000671;28;20038;-72
2023/08/30 03:43:33;;;;;;;0.80;0.80;;;;;;;;;;5003348;28;20042;-72
2023/08/30 03:46:00;;;;;;;0.98;0.90;;;;;;;;;;5010612;28;20049;-72
2023/08/30 03:48:25;;;;;;;1.30;1.20;;;;;;;;;;4994843;28;20096;-72
2023/08/30 03:50:51;;;;;;;1.25;1.10;;;;;;;;;;5002322;28;20038;-71
2023/08/30 03:53:16;;;;;;;1.38;1.20;;;;;;;;;;5015099;28;20065;-72
2023/08/30 03:55:41;;;;;;;1.10;1.00;;;;;;;;;;5013582;28;20034;-72
2023/08/30 03:58:07;;;;;;;1.30;1.20;;;;;;;;;;5000092;28;20042;-71
2023/08/30 04:00:36;;;;;;;2.08;1.70;;;;;;;;;;5004706;28;20041;-71
2023/08/30 04:03:01;;;;;;;1.30;1.20;;;;;;;;;;5004428;28;20033;-71
2023/08/30 04:05:27;;;;;;;0.90;0.90;;;;;;;;;;4996395;28;20028;-72
2023/08/30 04:07:52;;;;;;;1.45;1.15;;;;;;;;;;5017733;28;20072;-71
2023/08/30 04:10:17;;;;;;;1.30;1.20;;;;;;;;;;4995690;28;20041;-71
2023/08/30 04:12:43;;;;;;;1.88;1.40;;;;;;;;;;5004230;28;20087;-72
2023/08/30 04:15:10;;;;;;;2.20;1.83;;;;;;;;;;5003088;28;20036;-71
2023/08/30 04:17:35;;;;;;;1.67;1.58;;;;;;;;;;5013515;28;20029;-71
2023/08/30 04:20:01;;;;;;;1.13;1.02;;;;;;;;;;5013228;28;20037;-72
2023/08/30 04:22:26;;;;;;;0.77;0.77;;;;;;;;;;5007788;28;20041;-71
2023/08/30 04:24:51;;;;;;;0.70;0.70;;;;;;;;;;4989883;28;20554;-72
2023/08/30 04:27:17;;;;;;;1.73;0.80;;;;;;;;;;5011052;28;20053;-71
2023/08/30 04:29:44;;;;;;;1.00;0.90;;;;;;;;;;5015162;28;20125;-71
2023/08/30 04:32:10;;;;;;;1.15;1.05;;;;;;;;;;5006599;28;20029;-71
2023/08/30 04:34:35;;;;;;;1.35;1.20;;;;;;;;;;4997118;28;20044;-71
2023/08/30 04:37:01;;;;;;;0.98;0.98;;;;;;;;;;5003601;28;20044;-72
2023/08/30 04:39:26;;;;;;;0.77;0.70;;;;;;;;;;4988099;28;20446;-71
2023/08/30 04:41:52;;;;;;;0.60;0.60;;;;;;;;;;4985389;28;20042;-71
2023/08/30 04:44:19;;;;;;;0.75;0.75;;;;;;;;;;5005500;28;20560;-71
2023/08/30 04:46:44;;;;;;;0.90;0.80;;;;;;;;;;5001518;28;20053;-72
2023/08/30 04:49:09;;;;;;;0.75;0.75;;;;;;;;;;4994872;28;20042;-71
2023/08/30 04:51:35;;;;;;;1.40;1.30;;;;;;;;;;5010569;28;20549;-71
2023/08/30 04:54:00;;;;;;;1.83;1.48;;;;;;;;;;4994046;28;20052;-71
2023/08/30 04:56:26;;;;;;;1.52;1.40;;;;;;;;;;4996433;28;20060;-71
2023/08/30 04:58:51;;;;;;;1.77;1.58;;;;;;;;;;5000827;28;20045;-71
2023/08/30 05:01:16;;;;;;;2.40;1.67;;;;;;;;;;5009779;28;20108;-71
2023/08/30 05:03:42;;;;;;;1.58;1.27;;;;;;;;;;5011965;28;20167;-71
2023/08/30 05:06:08;;;;;;;2.53;2.20;;;;;;;;;;5014728;28;20052;-72
2023/08/30 05:08:33;;;;;;;4.18;2.70;;;;;;;;;;4980819;28;20038;-71
2023/08/30 05:10:58;;;;;;;4.65;1.98;;;;;;;;;;5006055;28;20045;-73
2023/08/30 05:13:24;;;;;;;3.22;2.92;;;;;;;;;;5014320;28;20117;-70
2023/08/30 05:15:49;;;;;;;3.83;2.72;;;;;;;;;;5007942;28;20041;-71
2023/08/30 05:18:15;;;;;;;1.80;1.70;;;;;;;;;;5006529;28;20508;-71
2023/08/30 05:20:40;;;;;;;2.38;2.08;;;;;;;;;;5001544;28;20042;-71
2023/08/30 05:23:05;;;;;;;2.22;2.03;;;;;;;;;;4990365;28;20128;-71
2023/08/30 05:25:31;;;;;;;2.30;2.10;;;;;;;;;;4999419;28;20421;-71
2023/08/30 05:27:56;;;;;;;2.60;2.15;;;;;;;;;;4988669;28;20044;-70
2023/08/30 05:30:21;;;;;;;2.33;1.80;;;;;;;;;;5004862;28;20504;-71
2023/08/30 05:32:47;;;;;;;2.72;2.40;;;;;;;;;;5003812;28;20055;-70
2023/08/30 05:35:12;;;;;;;2.35;2.15;;;;;;;;;;5000643;28;20042;-70
2023/08/30 05:37:37;;;;;;;3.25;2.60;;;;;;;;;;4998198;28;20072;-71
2023/08/30 05:40:03;;;;;;;3.00;2.70;;;;;;;;;;5008599;28;20046;-70
2023/08/30 05:42:29;;;;;;;3.30;3.00;;;;;;;;;;5010867;28;20131;-70
2023/08/30 05:44:54;;;;;;;3.78;3.30;;;;;;;;;;5004122;28;20080;-71
2023/08/30 05:47:21;;;;;;;3.75;3.20;;;;;;;;;;4993202;28;20037;-71
2023/08/30 05:49:46;;;;;;;5.05;3.35;;;;;;;;;;5003356;28;20049;-71
2023/08/30 05:52:11;;;;;;;3.83;3.40;;;;;;;;;;4988946;28;20061;-71
2023/08/30 05:54:37;;;;;;;4.85;3.00;;;;;;;;;;5003316;28;20041;-71
2023/08/30 05:57:03;;;;;;;3.47;3.10;;;;;;;;;;5012186;28;20096;-71
2023/08/30 05:59:28;;;;;;;4.78;3.42;;;;;;;;;;5015402;28;20481;-71
2023/08/30 06:01:54;;;;;;;6.78;3.72;;;;;;;;;;5006954;28;20062;-70
2023/08/30 06:04:20;;;;;;;5.05;3.58;;;;;;;;;;5000995;28;20050;-71
2023/08/30 06:06:45;;;;;;;5.95;3.80;;;;;;;;;;4988810;28;20061;-71
2023/08/30 06:09:12;;;;;;;3.70;2.83;;;;;;;;;;5004181;28;20072;-71
2023/08/30 06:11:38;;;;;;;5.85;3.90;;;;;;;;;;5003738;28;20673;-72
2023/08/30 06:14:04;;;;;;;6.15;4.22;;;;;;;;;;4999964;28;20153;-72
2023/08/30 06:16:30;;;;;;;4.53;3.58;;;;;;;;;;5002686;28;20060;-71
2023/08/30 06:18:55;;;;;;;5.47;4.65;;;;;;;;;;5010030;28;20045;-72
2023/08/30 06:21:20;;;;;;;6.43;3.95;;;;;;;;;;5009101;28;20222;-72
2023/08/30 06:23:46;;;;;;;4.90;4.00;;;;;;;;;;5001675;28;20048;-72
2023/08/30 06:26:11;;;;;;;4.90;3.90;;;;;;;;;;4976919;28;20049;-71
2023/08/30 06:28:36;;;;;;;4.30;3.90;;;;;;;;;;4957669;28;20056;-71
2023/08/30 06:31:02;;;;;;;5.60;3.35;;;;;;;;;;5010740;28;20091;-72
2023/08/30 06:33:27;;;;;;;6.18;4.38;;;;;;;;;;4989984;28;20052;-72
2023/08/30 06:35:53;;;;;;;4.60;4.13;;;;;;;;;;4996167;28;20041;-72
2023/08/30 06:38:19;;;;;;;6.80;4.22;;;;;;;;;;5007743;28;20096;-72
2023/08/30 06:40:49;;;;;;;4.00;3.63;;;;;;;;;;5003467;28;20121;-72
2023/08/30 06:43:14;;;;;;;5.03;4.43;;;;;;;;;;5001754;28;20688;-72
2023/08/30 06:45:41;;;;;;;5.38;4.60;;;;;;;;;;4999414;28;20042;-72
2023/08/30 06:48:09;;;;;;;7.20;4.47;;;;;;;;;;4994759;28;20034;-72
2023/08/30 06:50:35;;;;;;;6.15;4.57;;;;;;;;;;5002866;28;20120;-72
2023/08/30 06:53:02;;;;;;;4.68;4.22;;;;;;;;;;5000047;28;20137;-72
2023/08/30 06:55:27;;;;;;;5.13;4.07;;;;;;;;;;4998937;28;20042;-72
2023/08/30 06:57:52;;;;;;;5.43;4.55;;;;;;;;;;5000199;28;20394;-72
2023/08/30 07:00:18;;;;;;;4.78;4.28;;;;;;;;;;5004171;28;20040;-72
2023/08/30 07:02:45;;;;;;;6.03;3.92;;;;;;;;;;4992469;28;20045;-73
2023/08/30 07:05:11;;;;;;;5.28;3.65;;;;;;;;;;4997780;28;20434;-72
2023/08/30 07:07:38;;;;;;;6.65;3.65;;;;;;;;;;5001993;28;20045;-72
2023/08/30 07:10:04;;;;;;;5.47;4.07;;;;;;;;;;5004057;28;20392;-72
2023/08/30 07:12:29;;;;;;;4.55;4.00;;;;;;;;;;5001558;28;20049;-72
2023/08/30 07:14:55;;;;;;;5.15;4.65;;;;;;;;;;5003412;28;20128;-72
2023/08/30 07:17:20;;;;;;;5.15;4.10;;;;;;;;;;4989481;28;20050;-72
2023/08/30 07:19:45;;;;;;;5.25;4.60;;;;;;;;;;5003753;28;20161;-72
2023/08/30 07:22:11;;;;;;;4.93;4.40;;;;;;;;;;5004450;28;20042;-72
2023/08/30 07:24:36;;;;;;;4.78;4.22;;;;;;;;;;5003248;28;20697;-72
2023/08/30 07:27:02;;;;;;;4.85;4.05;;;;;;;;;;4996259;28;20034;-72
2023/08/30 07:29:28;;;;;;;4.95;4.13;;;;;;;;;;4982843;28;20154;-73
2023/08/30 07:31:54;;;;;;;5.28;4.05;;;;;;;;;;4991287;28;20051;-72
2023/08/30 07:34:20;;;;;;;3.67;2.28;;;;;;;;;;4987560;28;20054;-73
2023/08/30 07:36:45;;;;;;;5.22;4.18;;;;;;;;;;4990752;28;20037;-72
2023/08/30 07:39:11;;;;;;;5.22;4.40;;;;;;;;;;4998473;28;20042;-72
2023/08/30 07:41:36;;;;;;;4.30;3.90;;;;;;;;;;5001951;28;20072;-72
2023/08/30 07:44:02;;;;;;;5.18;4.22;;;;;;;;;;4998493;28;20829;-72
2023/08/30 07:46:28;;;;;;;3.72;3.33;;;;;;;;;;4993675;28;20038;-72
2023/08/30 07:48:54;;;;;;;4.65;4.10;;;;;;;;;;4997874;28;21019;-72
2023/08/30 07:51:19;;;;;;;2.38;2.10;;;;;;;;;;4994834;28;20054;-73
2023/08/30 07:53:44;;;;;;;4.03;3.63;;;;;;;;;;5010070;28;20064;-73
2023/08/30 07:56:10;;;;;;;4.10;3.65;;;;;;;;;;5000783;28;20029;-73
2023/08/30 07:58:35;;;;;;;2.80;2.10;;;;;;;;;;4997543;28;20041;-73
2023/08/30 08:01:00;;;;;;;3.08;2.83;;;;;;;;;;5005947;28;20070;-73
2023/08/30 08:03:26;;;;;;;4.15;3.28;;;;;;;;;;5002514;28;20036;-73
2023/08/30 08:05:51;;;;;;;5.22;3.90;;;;;;;;;;5011637;28;20734;-73
2023/08/30 08:08:18;;;;;;;2.83;2.58;;;;;;;;;;4999640;28;20123;-73
2023/08/30 08:10:43;;;;;;;2.42;1.90;;;;;;;;;;5009471;28;20072;-72
2023/08/30 08:13:09;;;;;;;3.83;2.97;;;;;;;;;;5001483;28;20519;-72
2023/08/30 08:15:34;;;;;;;6.10;3.42;;;;;;;;;;4991031;28;20046;-73
2023/08/30 08:18:01;;;;;;;4.78;2.58;;;;;;;;;;4998937;28;20044;-72
2023/08/30 08:20:26;;;;;;;1.48;1.35;;;;;;;;;;5006864;28;20044;-73
2023/08/30 08:22:52;;;;;;;3.80;1.85;;;;;;;;;;5010758;28;20045;-72
2023/08/30 08:25:17;;;;;;;3.90;2.90;;;;;;;;;;5004456;28;20493;-73
2023/08/30 08:27:43;;;;;;;5.55;4.13;;;;;;;;;;4970208;28;20140;-72
2023/08/30 08:30:09;;;;;;;6.60;4.00;;;;;;;;;;5008426;28;20033;-72
2023/08/30 08:32:35;;;;;;;2.08;1.33;;;;;;;;;;5004913;28;20037;-73
2023/08/30 08:35:01;;;;;;;2.67;2.20;;;;;;;;;;4988225;28;20101;-73
2023/08/30 08:37:26;;;;;;;7.53;4.72;;;;;;;;;;5001075;28;20061;-73
2023/08/30 08:40:00;;;;;;;5.13;4.00;;;;;;;;;;5002319;28;20120;-73
2023/08/30 08:42:26;;;;;;;5.80;4.32;;;;;;;;;;4991970;28;20380;-73
2023/08/30 08:44:54;;;;;;;8.02;4.35;;;;;;;;;;5007903;28;20041;-73
2023/08/30 08:47:20;;;;;;;2.55;1.85;;;;;;;;;;5003552;28;20092;-73
2023/08/30 08:49:47;;;;;;;1.67;1.33;;;;;;;;;;5007470;28;20128;-73
2023/08/30 08:52:14;;;;;;;2.15;1.95;;;;;;;;;;5003817;28;20074;-73
2023/08/30 08:54:40;;;;;;;4.38;3.50;;;;;;;;;;4986819;28;20057;-73
2023/08/30 08:57:07;;;;;;;3.75;3.30;;;;;;;;;;5009808;28;20038;-73
2023/08/30 08:59:33;;;;;;;1.65;1.30;;;;;;;;;;4989204;28;20065;-73
2023/08/30 09:02:00;;;;;;;2.60;2.30;;;;;;;;;;5002330;28;20041;-73
2023/08/30 09:04:25;;;;;;;1.48;1.38;;;;;;;;;;4996798;28;20200;-73
2023/08/30 09:06:51;;;;;;;3.92;3.33;;;;;;;;;;5008996;28;20610;-73
2023/08/30 09:09:17;;;;;;;4.75;3.00;;;;;;;;;;4993267;28;20100;-73
2023/08/30 09:11:43;;;;;;;2.38;2.17;;;;;;;;;;5002440;28;20076;-73
2023/08/30 09:14:09;;;;;;;3.17;2.42;;;;;;;;;;5003681;28;20060;-73
2023/08/30 09:16:34;;;;;;;2.95;2.70;;;;;;;;;;5000814;28;20060;-73
2023/08/30 09:19:01;;;;;;;3.85;3.33;;;;;;;;;;5007890;28;20034;-73
2023/08/30 09:21:27;;;;;;;3.47;2.80;;;;;;;;;;5002622;28;20049;-73
2023/08/30 09:24:06;;;;;;;2.28;1.15;;;;;;;;;;4990993;28;20037;-73
2023/08/30 09:26:35;;;;;;;5.18;3.65;;;;;;;;;;4999682;28;20151;-73
2023/08/30 09:29:05;;;;;;;3.45;2.65;;;;;;;;;;4999980;28;20112;-73
2023/08/30 09:31:34;;;;;;;4.05;3.15;;;;;;;;;;4998199;28;20044;-73
2023/08/30 09:34:01;;;;;;;3.00;1.85;;;;;;;;;;5002646;28;20036;-73
2023/08/30 09:36:32;;;;;;;4.18;3.15;;;;;;;;;;4981869;28;20050;-73
2023/08/30 09:38:58;;;;;;;2.80;2.47;;;;;;;;;;5007110;28;20422;-73
2023/08/30 09:41:24;;;;;;;5.05;3.30;;;;;;;;;;5008096;28;20034;-73
2023/08/30 09:43:50;;;;;;;5.30;4.72;;;;;;;;;;4999180;28;20026;-73
2023/08/30 09:46:15;;;;;;;5.18;4.38;;;;;;;;;;5000204;28;20029;-73
2023/08/30 09:48:41;;;;;;;3.95;3.38;;;;;;;;;;4990749;28;20054;-73
2023/08/30 09:51:09;;;;;;;5.88;4.28;;;;;;;;;;5008070;28;20494;-73
2023/08/30 09:53:42;;;;;;;7.25;5.00;;;;;;;;;;5006951;28;20042;-73
2023/08/30 09:56:10;;;;;;;4.95;4.45;;;;;;;;;;5011985;28;20038;-73
2023/08/30 09:58:35;;;;;;;2.20;2.00;;;;;;;;;;5003541;28;20059;-73
2023/08/30 10:01:02;;;;;;;3.08;2.58;;;;;;;;;;4996983;28;20433;-73
2023/08/30 10:03:30;;;;;;;2.72;2.15;;;;;;;;;;5001545;28;20046;-73
2023/08/30 10:05:56;;;;;;;5.13;4.63;;;;;;;;;;4998981;28;20510;-73
2023/08/30 10:08:23;;;;;;;1.23;1.13;;;;;;;;;;5005724;28;20061;-73
2023/08/30 10:10:50;;;;;;;6.47;5.82;;;;;;;;;;4986595;28;20713;-73
2023/08/30 10:13:17;;;;;;;5.15;4.13;;;;;;;;;;4992778;28;20041;-73
2023/08/30 10:15:49;;;;;;;5.82;4.90;;;;;;;;;;4989623;28;20080;-73
2023/08/30 10:18:19;;;;;;;5.53;2.67;;;;;;;;;;4999066;28;20052;-74
2023/08/30 10:20:45;;;;;;;3.20;2.90;;;;;;;;;;5000131;28;20390;-73
2023/08/30 10:23:11;;;;;;;2.53;2.33;;;;;;;;;;5003040;28;20108;-73
2023/08/30 10:25:38;;;;;;;2.33;2.13;;;;;;;;;;5003912;28;20034;-73
2023/08/30 10:28:04;;;;;;;5.50;4.95;;;;;;;;;;4987783;28;20052;-73
2023/08/30 10:30:29;;;;;;;5.65;4.55;;;;;;;;;;5001339;28;20072;-73
2023/08/30 10:32:55;;;;;;;5.00;4.38;;;;;;;;;;4997330;28;20046;-73
2023/08/30 10:35:20;;;;;;;2.35;2.10;;;;;;;;;;4993274;28;20065;-73
2023/08/30 10:37:56;;;;;;;7.95;5.15;;;;;;;;;;5002310;28;20060;-73
2023/08/30 10:40:22;;;;;;;3.97;3.65;;;;;;;;;;5001969;28;20064;-73
2023/08/30 10:42:58;;;;;;;3.25;2.95;;;;;;;;;;4990602;28;20164;-73
2023/08/30 10:45:24;;;;;;;5.38;4.88;;;;;;;;;;5006807;28;20149;-74
2023/08/30 10:47:54;;;;;;;2.50;2.30;;;;;;;;;;5008692;28;20061;-73
2023/08/30 10:50:28;;;;;;;6.55;5.57;;;;;;;;;;4999460;28;20038;-73
2023/08/30 10:52:56;;;;;;;6.45;5.40;;;;;;;;;;5000731;28;20066;-74
2023/08/30 10:55:23;;;;;;;6.35;5.03;;;;;;;;;;5001207;28;20128;-73
2023/08/30 10:58:02;;;;;;;4.00;3.60;;;;;;;;;;4999783;28;20112;-73
2023/08/30 11:00:29;;;;;;;2.85;2.58;;;;;;;;;;5000852;28;20562;-73
2023/08/30 11:02:55;;;;;;;2.88;2.67;;;;;;;;;;4999415;28;20573;-73
2023/08/30 11:05:23;;;;;;;6.13;5.10;;;;;;;;;;4999626;28;20038;-73
2023/08/30 11:07:50;;;;;;;4.75;4.35;;;;;;;;;;4983306;28;20045;-74
2023/08/30 11:10:16;;;;;;;4.75;3.88;;;;;;;;;;5009665;28;20037;-74
2023/08/30 11:12:43;;;;;;;1.90;1.80;;;;;;;;;;5003667;28;20100;-74
2023/08/30 11:15:10;;;;;;;5.03;4.00;;;;;;;;;;4984470;28;20550;-73
2023/08/30 11:17:36;;;;;;;3.97;3.35;;;;;;;;;;5001049;28;20045;-74
2023/08/30 11:20:12;;;;;;;5.10;3.47;;;;;;;;;;5000045;28;20128;-73
2023/08/30 11:22:41;;;;;;;2.15;1.92;;;;;;;;;;5000372;28;20064;-74
2023/08/30 11:25:08;;;;;;;3.20;2.85;;;;;;;;;;4991200;28;20088;-73
2023/08/30 11:27:33;;;;;;;4.82;3.97;;;;;;;;;;4982359;28;20041;-73
2023/08/30 11:30:05;;;;;;;5.18;4.68;;;;;;;;;;5012205;28;20041;-74
2023/08/30 11:32:38;;;;;;;3.47;3.13;;;;;;;;;;4996876;28;20213;-74
2023/08/30 11:35:05;;;;;;;4.60;4.18;;;;;;;;;;5003856;28;20044;-74
2023/08/30 11:37:31;;;;;;;4.75;4.22;;;;;;;;;;5007219;28;20042;-74
2023/08/30 11:39:57;;;;;;;3.22;2.92;;;;;;;;;;5009573;28;20128;-74
2023/08/30 11:42:23;;;;;;;2.88;2.67;;;;;;;;;;5002235;28;20048;-74
2023/08/30 11:44:50;;;;;;;3.40;3.15;;;;;;;;;;5003995;28;20645;-74
2023/08/30 11:47:20;;;;;;;1.75;1.65;;;;;;;;;;4982257;28;20050;-74
2023/08/30 11:49:47;;;;;;;4.25;3.85;;;;;;;;;;5002571;28;20630;-73
2023/08/30 11:52:13;;;;;;;3.65;3.35;;;;;;;;;;5006912;28;20507;-74
2023/08/30 11:54:39;;;;;;;2.90;2.70;;;;;;;;;;4996807;28;20061;-74
2023/08/30 11:57:05;;;;;;;2.88;2.55;;;;;;;;;;4985201;28;20653;-73
2023/08/30 11:59:34;;;;;;;3.50;3.20;;;;;;;;;;4995303;28;20136;-74
2023/08/30 12:02:00;;;;;;;2.88;2.67;;;;;;;;;;5009293;28;20048;-74
2023/08/30 12:04:25;;;;;;;3.38;3.03;;;;;;;;;;4991126;28;20045;-74
2023/08/30 12:06:55;;;;;;;3.13;2.20;;;;;;;;;;4999569;28;20154;-74
2023/08/30 12:09:21;;;;;;;3.53;3.20;;;;;;;;;;5003090;28;20030;-74
2023/08/30 12:11:51;;;;;;;4.40;3.67;;;;;;;;;;4998601;28;20042;-74
2023/08/30 12:14:16;;;;;;;3.60;2.20;;;;;;;;;;4981851;28;20057;-74
2023/08/30 12:16:42;;;;;;;3.40;2.72;;;;;;;;;;5001911;28;20049;-74
2023/08/30 12:19:12;;;;;;;2.95;2.75;;;;;;;;;;5004241;28;20044;-74
2023/08/30 12:21:44;;;;;;;2.93;2.60;;;;;;;;;;5004898;28;20100;-74
2023/08/30 12:24:10;;;;;;;3.63;2.78;;;;;;;;;;5006898;28;20033;-74
2023/08/30 12:26:38;;;;;;;3.30;3.03;;;;;;;;;;4977934;28;20037;-74
2023/08/30 12:29:03;;;;;;;4.00;3.60;;;;;;;;;;4986746;28;20033;-74
2023/08/30 12:31:29;;;;;;;4.32;3.92;;;;;;;;;;4999647;28;20061;-73
2023/08/30 12:33:54;;;;;;;4.95;3.35;;;;;;;;;;4999197;28;20037;-74
2023/08/30 12:36:20;;;;;;;3.78;3.35;;;;;;;;;;4976682;28;20107;-74
2023/08/30 12:38:45;;;;;;;4.60;4.20;;;;;;;;;;4991009;28;20477;-74
2023/08/30 12:41:11;;;;;;;5.45;4.25;;;;;;;;;;4989590;28;20045;-74
2023/08/30 12:43:36;;;;;;;6.47;4.68;;;;;;;;;;5005566;28;20041;-74
2023/08/30 12:46:01;;;;;;;4.22;3.85;;;;;;;;;;4991741;28;20120;-74
2023/08/30 12:48:27;;;;;;;4.65;3.90;;;;;;;;;;4981864;28;20050;-73
2023/08/30 12:50:52;;;;;;;4.32;3.65;;;;;;;;;;5000453;28;20065;-74
2023/08/30 12:53:18;;;;;;;3.78;2.60;;;;;;;;;;5004997;28;20048;-74
2023/08/30 12:55:43;;;;;;;4.25;3.83;;;;;;;;;;4988304;28;20062;-74
2023/08/30 12:58:09;;;;;;;4.53;2.95;;;;;;;;;;5007981;28;20150;-74
2023/08/30 13:00:35;;;;;;;2.72;2.53;;;;;;;;;;4998209;28;20128;-73
2023/08/30 13:03:03;;;;;;;2.55;2.35;;;;;;;;;;5004053;28;20491;-73
2023/08/30 13:05:30;;;;;;;3.20;2.90;;;;;;;;;;4999269;28;20376;-73
2023/08/30 13:07:55;;;;;;;3.42;3.13;;;;;;;;;;4999351;28;20037;-74
2023/08/30 13:10:21;;;;;;;3.25;2.95;;;;;;;;;;5003636;28;20045;-74
2023/08/30 13:12:46;;;;;;;3.63;3.33;;;;;;;;;;5001286;28;20033;-74
2023/08/30 13:15:12;;;;;;;2.97;2.63;;;;;;;;;;5000998;28;20045;-74
2023/08/30 13:17:37;;;;;;;3.47;3.17;;;;;;;;;;4983779;28;20046;-73
2023/08/30 13:20:03;;;;;;;2.88;2.67;;;;;;;;;;5009260;28;20029;-74
2023/08/30 13:22:29;;;;;;;2.78;2.58;;;;;;;;;;4989175;28;20041;-74
2023/08/30 13:24:54;;;;;;;3.30;3.00;;;;;;;;;;5002378;28;20090;-74
2023/08/30 13:27:20;;;;;;;2.97;2.50;;;;;;;;;;5002053;28;20151;-73
2023/08/30 13:29:46;;;;;;;3.67;2.72;;;;;;;;;;5005328;28;20049;-74
2023/08/30 13:32:11;;;;;;;4.22;3.40;;;;;;;;;;4998560;28;20046;-74
2023/08/30 13:34:38;;;;;;;3.35;3.05;;;;;;;;;;5007061;28;20537;-73
2023/08/30 13:37:04;;;;;;;3.25;2.95;;;;;;;;;;4982697;28;20154;-74
2023/08/30 13:39:29;;;;;;;3.90;3.50;;;;;;;;;;5003899;28;20041;-73
2023/08/30 13:41:54;;;;;;;2.97;2.50;;;;;;;;;;4996178;28;20426;-74
2023/08/30 13:44:20;;;;;;;4.30;3.10;;;;;;;;;;4999231;28;20092;-72
2023/08/30 13:46:48;;;;;;;2.83;2.63;;;;;;;;;;4999702;28;20708;-72
2023/08/30 13:49:14;;;;;;;2.33;2.13;;;;;;;;;;4986978;28;20033;-73
2023/08/30 13:51:40;;;;;;;3.13;2.88;;;;;;;;;;4985475;28;20037;-73
2023/08/30 13:54:05;;;;;;;3.30;2.67;;;;;;;;;;5002607;28;20545;-73
2023/08/30 13:56:31;;;;;;;2.60;2.40;;;;;;;;;;5006486;28;20150;-73
2023/08/30 13:58:57;;;;;;;2.50;2.30;;;;;;;;;;5002055;28;20033;-74
2023/08/30 14:01:23;;;;;;;2.55;2.35;;;;;;;;;;5002302;28;20048;-73
2023/08/30 14:03:48;;;;;;;3.28;2.95;;;;;;;;;;4998322;28;20604;-73
2023/08/30 14:06:13;;;;;;;3.13;2.83;;;;;;;;;;4976963;28;20041;-74
2023/08/30 14:08:39;;;;;;;4.30;3.20;;;;;;;;;;5000984;28;20093;-74
2023/08/30 14:11:04;;;;;;;3.72;3.42;;;;;;;;;;5005062;28;20042;-74
2023/08/30 14:13:32;;;;;;;3.42;2.97;;;;;;;;;;5006629;28;20052;-74
2023/08/30 14:16:02;;;;;;;4.00;3.50;;;;;;;;;;5003927;28;20076;-74
2023/08/30 14:18:28;;;;;;;3.15;2.85;;;;;;;;;;4999627;28;20430;-74
2023/08/30 14:20:57;;;;;;;4.78;3.67;;;;;;;;;;4996491;28;20042;-74
2023/08/30 14:23:26;;;;;;;4.35;3.58;;;;;;;;;;5002248;28;20057;-74
2023/08/30 14:26:08;;;;;;;4.18;3.70;;;;;;;;;;5006247;28;20048;-74
2023/08/30 14:28:35;;;;;;;4.45;3.70;;;;;;;;;;5002976;28;20045;-74
2023/08/30 14:31:01;;;;;;;4.93;3.55;;;;;;;;;;4990134;28;20048;-73
2023/08/30 14:33:26;;;;;;;4.40;4.00;;;;;;;;;;5002140;28;20420;-74
2023/08/30 14:35:52;;;;;;;3.60;3.25;;;;;;;;;;5002530;28;20120;-73
2023/08/30 14:38:17;;;;;;;3.95;3.65;;;;;;;;;;5006488;28;20033;-73
2023/08/30 14:40:42;;;;;;;4.72;4.28;;;;;;;;;;5013370;28;20046;-73